sensor_id;sensor_type;location;lat;lon;timestamp;pressure;altitude;pressure_sealevel;temperature;humidity
21361;BME280;10839;43.206;23.550;2022-11-21T00:01:13;95943.25;;;11.07;100.00
21361;BME280;10839;43.206;23.550;2022-11-21T00:03:40;95941.78;;;10.93;100.00
21361;BME280;10839;43.206;23.550;2022-11-21T00:06:06;95963.81;;;11.01;100.00
21361;BME280;10839;43.206;23.550;2022-11-21T00:08:33;95961.75;;;11.15;100.00
21361;BME280;10839;43.206;23.550;2022-11-21T00:10:59;95938.31;;;11.04;100.00
21361;BME280;10839;43.206;23.550;2022-11-21T00:13:30;95910.81;;;11.02;100.00
21361;BME280;10839;43.206;23.550;2022-11-21T00:16:02;95913.69;;;11.18;100.00
21361;BME280;10839;43.206;23.550;2022-11-21T00:18:29;95925.38;;;11.12;100.00
21361;BME280;10839;43.206;23.550;2022-11-21T00:20:55;95938.38;;;11.15;100.00
21361;BME280;10839;43.206;23.550;2022-11-21T00:23:21;95919.53;;;11.15;100.00
21361;BME280;10839;43.206;23.550;2022-11-21T00:25:47;95919.16;;;11.12;100.00
21361;BME280;10839;43.206;23.550;2022-11-21T00:28:13;95904.31;;;11.09;100.00
21361;BME280;10839;43.206;23.550;2022-11-21T00:30:39;95901.84;;;11.08;100.00
21361;BME280;10839;43.206;23.550;2022-11-21T00:33:05;95891.56;;;11.28;100.00
21361;BME280;10839;43.206;23.550;2022-11-21T00:35:31;95892.88;;;11.25;100.00
21361;BME280;10839;43.206;23.550;2022-11-21T00:37:57;95906.06;;;11.15;100.00
21361;BME280;10839;43.206;23.550;2022-11-21T00:40:23;95900.97;;;10.96;100.00
21361;BME280;10839;43.206;23.550;2022-11-21T00:42:49;95905.28;;;11.26;100.00
21361;BME280;10839;43.206;23.550;2022-11-21T00:45:15;95910.47;;;11.10;100.00
21361;BME280;10839;43.206;23.550;2022-11-21T00:47:42;95915.78;;;10.87;100.00
21361;BME280;10839;43.206;23.550;2022-11-21T00:50:09;95903.94;;;11.06;100.00
21361;BME280;10839;43.206;23.550;2022-11-21T00:52:34;95903.84;;;11.12;100.00
21361;BME280;10839;43.206;23.550;2022-11-21T00:55:00;95911.25;;;10.99;100.00
21361;BME280;10839;43.206;23.550;2022-11-21T00:57:27;95906.94;;;10.98;100.00
21361;BME280;10839;43.206;23.550;2022-11-21T00:59:53;95896.59;;;11.13;100.00
21361;BME280;10839;43.206;23.550;2022-11-21T01:02:19;95903.47;;;11.09;100.00
21361;BME280;10839;43.206;23.550;2022-11-21T01:04:45;95905.97;;;10.92;100.00
21361;BME280;10839;43.206;23.550;2022-11-21T01:07:13;95903.66;;;10.96;100.00
21361;BME280;10839;43.206;23.550;2022-11-21T01:09:39;95903.94;;;11.06;100.00
21361;BME280;10839;43.206;23.550;2022-11-21T01:12:05;95895.44;;;10.91;100.00
21361;BME280;10839;43.206;23.550;2022-11-21T01:14:32;95881.28;;;10.66;100.00
21361;BME280;10839;43.206;23.550;2022-11-21T01:16:59;95879.66;;;10.94;100.00
21361;BME280;10839;43.206;23.550;2022-11-21T01:19:25;95875.69;;;10.97;100.00
21361;BME280;10839;43.206;23.550;2022-11-21T01:21:54;95893.34;;;10.93;100.00
21361;BME280;10839;43.206;23.550;2022-11-21T01:24:20;95884.94;;;11.01;100.00
21361;BME280;10839;43.206;23.550;2022-11-21T01:26:46;95880.53;;;11.18;100.00
21361;BME280;10839;43.206;23.550;2022-11-21T01:29:13;95868.34;;;11.04;100.00
21361;BME280;10839;43.206;23.550;2022-11-21T01:31:39;95858.53;;;10.80;100.00
21361;BME280;10839;43.206;23.550;2022-11-21T01:34:05;95865.16;;;10.95;100.00
21361;BME280;10839;43.206;23.550;2022-11-21T01:36:33;95847.75;;;10.98;100.00
21361;BME280;10839;43.206;23.550;2022-11-21T01:39:02;95842.22;;;10.93;100.00
21361;BME280;10839;43.206;23.550;2022-11-21T01:41:33;95840.44;;;10.87;100.00
21361;BME280;10839;43.206;23.550;2022-11-21T01:44:15;95836.59;;;10.94;100.00
21361;BME280;10839;43.206;23.550;2022-11-21T01:46:42;95832.94;;;10.89;100.00
21361;BME280;10839;43.206;23.550;2022-11-21T01:49:12;95831.75;;;10.85;100.00
21361;BME280;10839;43.206;23.550;2022-11-21T01:56:59;95832.50;;;10.92;100.00
21361;BME280;10839;43.206;23.550;2022-11-21T01:59:30;95825.22;;;10.81;100.00
21361;BME280;10839;43.206;23.550;2022-11-21T02:01:59;95832.66;;;11.08;100.00
21361;BME280;10839;43.206;23.550;2022-11-21T02:04:30;95819.91;;;11.04;100.00
21361;BME280;10839;43.206;23.550;2022-11-21T02:06:58;95828.41;;;10.89;100.00
21361;BME280;10839;43.206;23.550;2022-11-21T02:09:27;95818.41;;;11.08;100.00
21361;BME280;10839;43.206;23.550;2022-11-21T02:11:59;95812.66;;;11.04;100.00
21361;BME280;10839;43.206;23.550;2022-11-21T02:14:26;95808.88;;;10.94;100.00
21361;BME280;10839;43.206;23.550;2022-11-21T02:16:56;95808.38;;;10.85;100.00
21361;BME280;10839;43.206;23.550;2022-11-21T02:19:28;95813.78;;;10.97;100.00
21361;BME280;10839;43.206;23.550;2022-11-21T02:22:04;95808.13;;;10.87;100.00
21361;BME280;10839;43.206;23.550;2022-11-21T02:27:30;95808.59;;;10.84;100.00
21361;BME280;10839;43.206;23.550;2022-11-21T02:29:56;95809.66;;;10.83;100.00
21361;BME280;10839;43.206;23.550;2022-11-21T02:32:30;95798.59;;;10.61;100.00
21361;BME280;10839;43.206;23.550;2022-11-21T02:34:56;95806.34;;;10.69;100.00
21361;BME280;10839;43.206;23.550;2022-11-21T02:37:22;95798.63;;;10.73;100.00
21361;BME280;10839;43.206;23.550;2022-11-21T02:39:49;95808.78;;;10.71;100.00
21361;BME280;10839;43.206;23.550;2022-11-21T02:47:16;95817.59;;;10.78;100.00
21361;BME280;10839;43.206;23.550;2022-11-21T02:49:57;95812.69;;;10.57;100.00
21361;BME280;10839;43.206;23.550;2022-11-21T02:52:26;95818.63;;;10.47;100.00
21361;BME280;10839;43.206;23.550;2022-11-21T02:54:52;95816.13;;;10.64;100.00
21361;BME280;10839;43.206;23.550;2022-11-21T02:57:18;95832.88;;;10.66;100.00
21361;BME280;10839;43.206;23.550;2022-11-21T02:59:44;95824.25;;;10.27;100.00
21361;BME280;10839;43.206;23.550;2022-11-21T03:02:10;95842.31;;;10.39;100.00
21361;BME280;10839;43.206;23.550;2022-11-21T03:04:36;95852.75;;;10.47;100.00
21361;BME280;10839;43.206;23.550;2022-11-21T03:07:02;95861.91;;;10.27;100.00
21361;BME280;10839;43.206;23.550;2022-11-21T03:09:28;95855.47;;;10.10;100.00
21361;BME280;10839;43.206;23.550;2022-11-21T03:11:54;95857.75;;;10.43;100.00
21361;BME280;10839;43.206;23.550;2022-11-21T03:14:21;95849.19;;;10.53;100.00
21361;BME280;10839;43.206;23.550;2022-11-21T03:16:47;95853.06;;;10.39;100.00
21361;BME280;10839;43.206;23.550;2022-11-21T03:19:13;95847.16;;;10.48;100.00
21361;BME280;10839;43.206;23.550;2022-11-21T03:21:39;95846.63;;;10.58;100.00
21361;BME280;10839;43.206;23.550;2022-11-21T03:24:05;95846.94;;;10.50;100.00
21361;BME280;10839;43.206;23.550;2022-11-21T03:26:32;95846.81;;;10.45;100.00
21361;BME280;10839;43.206;23.550;2022-11-21T03:28:58;95844.47;;;10.66;100.00
21361;BME280;10839;43.206;23.550;2022-11-21T03:31:23;95845.63;;;10.70;100.00
21361;BME280;10839;43.206;23.550;2022-11-21T03:33:50;95822.75;;;10.31;100.00
21361;BME280;10839;43.206;23.550;2022-11-21T03:36:16;95818.16;;;10.20;100.00
21361;BME280;10839;43.206;23.550;2022-11-21T03:38:42;95828.19;;;10.43;100.00
21361;BME280;10839;43.206;23.550;2022-11-21T03:41:08;95816.16;;;10.46;100.00
21361;BME280;10839;43.206;23.550;2022-11-21T03:44:05;95816.50;;;10.19;100.00
21361;BME280;10839;43.206;23.550;2022-11-21T03:46:36;95821.25;;;10.36;100.00
21361;BME280;10839;43.206;23.550;2022-11-21T03:49:03;95812.88;;;10.44;100.00
21361;BME280;10839;43.206;23.550;2022-11-21T03:51:29;95806.56;;;10.20;100.00
21361;BME280;10839;43.206;23.550;2022-11-21T03:53:55;95804.31;;;9.99;100.00
21361;BME280;10839;43.206;23.550;2022-11-21T03:56:22;95805.44;;;10.27;100.00
21361;BME280;10839;43.206;23.550;2022-11-21T03:58:49;95804.53;;;10.33;100.00
21361;BME280;10839;43.206;23.550;2022-11-21T04:01:16;95812.06;;;10.07;100.00
21361;BME280;10839;43.206;23.550;2022-11-21T04:03:42;95817.41;;;10.13;100.00
21361;BME280;10839;43.206;23.550;2022-11-21T04:06:13;95810.97;;;10.32;100.00
21361;BME280;10839;43.206;23.550;2022-11-21T04:08:46;95821.88;;;10.19;100.00
21361;BME280;10839;43.206;23.550;2022-11-21T04:11:12;95824.84;;;10.11;100.00
21361;BME280;10839;43.206;23.550;2022-11-21T04:13:38;95824.44;;;10.14;100.00
21361;BME280;10839;43.206;23.550;2022-11-21T04:16:04;95814.56;;;10.08;100.00
21361;BME280;10839;43.206;23.550;2022-11-21T04:18:30;95810.84;;;10.09;100.00
21361;BME280;10839;43.206;23.550;2022-11-21T04:21:13;95809.19;;;10.08;100.00
21361;BME280;10839;43.206;23.550;2022-11-21T04:23:41;95812.00;;;10.13;100.00
21361;BME280;10839;43.206;23.550;2022-11-21T04:26:07;95828.88;;;10.20;100.00
21361;BME280;10839;43.206;23.550;2022-11-21T04:28:33;95822.13;;;9.93;100.00
21361;BME280;10839;43.206;23.550;2022-11-21T04:31:04;95831.88;;;10.12;100.00
21361;BME280;10839;43.206;23.550;2022-11-21T04:33:30;95834.34;;;10.14;100.00
21361;BME280;10839;43.206;23.550;2022-11-21T04:35:57;95838.28;;;10.11;100.00
21361;BME280;10839;43.206;23.550;2022-11-21T04:38:23;95829.63;;;9.91;100.00
21361;BME280;10839;43.206;23.550;2022-11-21T04:40:49;95841.34;;;10.15;100.00
21361;BME280;10839;43.206;23.550;2022-11-21T04:43:15;95843.25;;;10.14;100.00
21361;BME280;10839;43.206;23.550;2022-11-21T04:45:41;95842.44;;;9.89;100.00
21361;BME280;10839;43.206;23.550;2022-11-21T04:48:10;95854.91;;;10.02;100.00
21361;BME280;10839;43.206;23.550;2022-11-21T04:50:36;95856.38;;;10.22;100.00
21361;BME280;10839;43.206;23.550;2022-11-21T04:53:02;95856.84;;;9.95;100.00
21361;BME280;10839;43.206;23.550;2022-11-21T04:55:29;95858.88;;;9.81;100.00
21361;BME280;10839;43.206;23.550;2022-11-21T04:57:57;95856.34;;;10.04;100.00
21361;BME280;10839;43.206;23.550;2022-11-21T05:00:23;95863.94;;;10.07;100.00
21361;BME280;10839;43.206;23.550;2022-11-21T05:02:50;95875.56;;;9.83;100.00
21361;BME280;10839;43.206;23.550;2022-11-21T05:05:16;95865.72;;;9.95;100.00
21361;BME280;10839;43.206;23.550;2022-11-21T05:07:42;95866.97;;;10.17;100.00
21361;BME280;10839;43.206;23.550;2022-11-21T05:10:08;95877.84;;;10.04;100.00
21361;BME280;10839;43.206;23.550;2022-11-21T05:12:34;95882.88;;;9.76;100.00
21361;BME280;10839;43.206;23.550;2022-11-21T05:15:19;95885.69;;;10.06;100.00
21361;BME280;10839;43.206;23.550;2022-11-21T05:17:48;95881.44;;;10.16;100.00
21361;BME280;10839;43.206;23.550;2022-11-21T05:20:14;95882.91;;;9.94;100.00
21361;BME280;10839;43.206;23.550;2022-11-21T05:22:40;95897.50;;;9.80;100.00
21361;BME280;10839;43.206;23.550;2022-11-21T05:25:07;95883.63;;;10.08;100.00
21361;BME280;10839;43.206;23.550;2022-11-21T05:27:36;95888.66;;;9.98;100.00
21361;BME280;10839;43.206;23.550;2022-11-21T05:30:02;95900.78;;;9.82;100.00
21361;BME280;10839;43.206;23.550;2022-11-21T05:32:45;95907.25;;;9.99;100.00
21361;BME280;10839;43.206;23.550;2022-11-21T05:35:11;95898.47;;;10.10;100.00
21361;BME280;10839;43.206;23.550;2022-11-21T05:37:36;95907.38;;;9.86;100.00
21361;BME280;10839;43.206;23.550;2022-11-21T05:40:03;95917.78;;;9.76;100.00
21361;BME280;10839;43.206;23.550;2022-11-21T05:42:29;95928.28;;;10.02;100.00
21361;BME280;10839;43.206;23.550;2022-11-21T05:45:17;95919.63;;;10.00;100.00
21361;BME280;10839;43.206;23.550;2022-11-21T05:47:43;95913.72;;;9.67;100.00
21361;BME280;10839;43.206;23.550;2022-11-21T05:50:09;95919.31;;;9.90;100.00
21361;BME280;10839;43.206;23.550;2022-11-21T05:52:35;95927.19;;;10.10;100.00
21361;BME280;10839;43.206;23.550;2022-11-21T05:55:01;95939.59;;;9.86;100.00
21361;BME280;10839;43.206;23.550;2022-11-21T05:57:27;95940.78;;;9.90;100.00
21361;BME280;10839;43.206;23.550;2022-11-21T05:59:53;95943.13;;;10.05;100.00
21361;BME280;10839;43.206;23.550;2022-11-21T06:02:19;95954.69;;;10.12;100.00
21361;BME280;10839;43.206;23.550;2022-11-21T06:05:04;95960.38;;;9.97;100.00
21361;BME280;10839;43.206;23.550;2022-11-21T06:07:31;95974.56;;;10.04;100.00
21361;BME280;10839;43.206;23.550;2022-11-21T06:09:57;95969.13;;;10.17;100.00
21361;BME280;10839;43.206;23.550;2022-11-21T06:12:24;95955.97;;;10.09;100.00
21361;BME280;10839;43.206;23.550;2022-11-21T06:14:50;95962.63;;;10.00;100.00
21361;BME280;10839;43.206;23.550;2022-11-21T06:17:16;95967.66;;;10.40;100.00
21361;BME280;10839;43.206;23.550;2022-11-21T06:19:42;95983.78;;;10.15;100.00
21361;BME280;10839;43.206;23.550;2022-11-21T06:22:09;95981.50;;;10.18;100.00
21361;BME280;10839;43.206;23.550;2022-11-21T06:24:36;95989.59;;;10.37;100.00
21361;BME280;10839;43.206;23.550;2022-11-21T06:27:02;95990.03;;;10.33;100.00
21361;BME280;10839;43.206;23.550;2022-11-21T06:29:28;95987.03;;;10.23;100.00
21361;BME280;10839;43.206;23.550;2022-11-21T06:31:54;95985.31;;;10.04;100.00
21361;BME280;10839;43.206;23.550;2022-11-21T06:34:21;95985.84;;;10.19;100.00
21361;BME280;10839;43.206;23.550;2022-11-21T06:36:47;95977.34;;;10.22;100.00
21361;BME280;10839;43.206;23.550;2022-11-21T06:39:13;95982.31;;;10.19;100.00
21361;BME280;10839;43.206;23.550;2022-11-21T06:41:39;95987.50;;;10.39;100.00
21361;BME280;10839;43.206;23.550;2022-11-21T06:44:05;95994.22;;;10.29;100.00
21361;BME280;10839;43.206;23.550;2022-11-21T06:46:31;95997.50;;;10.31;100.00
21361;BME280;10839;43.206;23.550;2022-11-21T06:48:57;96007.06;;;10.27;100.00
21361;BME280;10839;43.206;23.550;2022-11-21T06:51:24;96004.84;;;10.43;100.00
21361;BME280;10839;43.206;23.550;2022-11-21T06:53:55;96020.84;;;10.56;100.00
21361;BME280;10839;43.206;23.550;2022-11-21T06:56:27;96029.50;;;10.40;100.00
21361;BME280;10839;43.206;23.550;2022-11-21T06:58:54;96029.34;;;10.35;100.00
21361;BME280;10839;43.206;23.550;2022-11-21T07:01:21;96040.41;;;10.45;100.00
21361;BME280;10839;43.206;23.550;2022-11-21T07:03:47;96037.66;;;10.51;100.00
21361;BME280;10839;43.206;23.550;2022-11-21T07:06:13;96037.59;;;10.33;100.00
21361;BME280;10839;43.206;23.550;2022-11-21T07:08:39;96035.03;;;10.45;100.00
21361;BME280;10839;43.206;23.550;2022-11-21T07:11:12;96045.34;;;10.48;100.00
21361;BME280;10839;43.206;23.550;2022-11-21T07:13:39;96040.09;;;10.35;100.00
21361;BME280;10839;43.206;23.550;2022-11-21T07:16:10;96050.06;;;10.27;100.00
21361;BME280;10839;43.206;23.550;2022-11-21T07:18:39;96060.72;;;10.41;100.00
21361;BME280;10839;43.206;23.550;2022-11-21T07:21:07;96049.19;;;10.33;100.00
21361;BME280;10839;43.206;23.550;2022-11-21T07:23:33;96061.59;;;10.35;100.00
21361;BME280;10839;43.206;23.550;2022-11-21T07:26:02;96066.03;;;10.47;100.00
21361;BME280;10839;43.206;23.550;2022-11-21T07:28:29;96064.38;;;10.46;100.00
21361;BME280;10839;43.206;23.550;2022-11-21T07:30:56;96066.66;;;10.24;100.00
21361;BME280;10839;43.206;23.550;2022-11-21T07:33:22;96070.53;;;10.28;100.00
21361;BME280;10839;43.206;23.550;2022-11-21T07:35:48;96071.34;;;10.54;100.00
21361;BME280;10839;43.206;23.550;2022-11-21T07:38:14;96078.47;;;10.42;100.00
21361;BME280;10839;43.206;23.550;2022-11-21T07:40:40;96083.91;;;10.35;100.00
21361;BME280;10839;43.206;23.550;2022-11-21T07:43:09;96078.81;;;10.52;100.00
21361;BME280;10839;43.206;23.550;2022-11-21T07:45:45;96078.09;;;10.38;100.00
21361;BME280;10839;43.206;23.550;2022-11-21T07:48:11;96086.16;;;10.13;100.00
21361;BME280;10839;43.206;23.550;2022-11-21T07:50:37;96083.09;;;10.35;100.00
21361;BME280;10839;43.206;23.550;2022-11-21T07:53:05;96075.38;;;10.45;100.00
21361;BME280;10839;43.206;23.550;2022-11-21T07:55:32;96077.41;;;10.24;100.00
21361;BME280;10839;43.206;23.550;2022-11-21T07:58:04;96076.69;;;10.36;100.00
21361;BME280;10839;43.206;23.550;2022-11-21T08:00:33;96069.72;;;10.53;100.00
21361;BME280;10839;43.206;23.550;2022-11-21T08:03:00;96082.66;;;10.38;100.00
21361;BME280;10839;43.206;23.550;2022-11-21T08:05:27;96090.41;;;10.27;100.00
21361;BME280;10839;43.206;23.550;2022-11-21T08:07:53;96090.91;;;10.43;100.00
21361;BME280;10839;43.206;23.550;2022-11-21T08:10:19;96083.31;;;10.58;100.00
21361;BME280;10839;43.206;23.550;2022-11-21T08:12:45;96089.34;;;10.28;100.00
21361;BME280;10839;43.206;23.550;2022-11-21T08:15:11;96098.97;;;10.18;100.00
21361;BME280;10839;43.206;23.550;2022-11-21T08:17:37;96075.56;;;10.43;100.00
21361;BME280;10839;43.206;23.550;2022-11-21T08:20:05;96103.78;;;10.34;100.00
21361;BME280;10839;43.206;23.550;2022-11-21T08:22:31;96119.22;;;10.14;100.00
21361;BME280;10839;43.206;23.550;2022-11-21T08:25:02;96111.19;;;10.39;100.00
21361;BME280;10839;43.206;23.550;2022-11-21T08:27:30;96109.13;;;10.83;100.00
21361;BME280;10839;43.206;23.550;2022-11-21T08:29:56;96119.13;;;10.52;100.00
21361;BME280;10839;43.206;23.550;2022-11-21T08:32:21;96105.38;;;10.42;100.00
21361;BME280;10839;43.206;23.550;2022-11-21T08:34:47;96113.06;;;10.63;100.00
21361;BME280;10839;43.206;23.550;2022-11-21T08:37:13;96114.09;;;10.62;100.00
21361;BME280;10839;43.206;23.550;2022-11-21T08:39:39;96127.31;;;10.39;100.00
21361;BME280;10839;43.206;23.550;2022-11-21T08:42:05;96138.47;;;10.42;100.00
21361;BME280;10839;43.206;23.550;2022-11-21T08:44:33;96130.50;;;10.54;100.00
21361;BME280;10839;43.206;23.550;2022-11-21T08:46:59;96145.88;;;10.47;100.00
21361;BME280;10839;43.206;23.550;2022-11-21T08:49:26;96150.19;;;10.23;100.00
21361;BME280;10839;43.206;23.550;2022-11-21T08:51:52;96143.00;;;10.42;100.00
21361;BME280;10839;43.206;23.550;2022-11-21T08:54:20;96152.47;;;10.51;100.00
21361;BME280;10839;43.206;23.550;2022-11-21T08:56:47;96152.91;;;10.48;100.00
21361;BME280;10839;43.206;23.550;2022-11-21T08:59:15;96146.09;;;10.70;100.00
21361;BME280;10839;43.206;23.550;2022-11-21T09:01:41;96146.72;;;10.90;100.00
21361;BME280;10839;43.206;23.550;2022-11-21T09:04:07;96156.03;;;10.45;100.00
21361;BME280;10839;43.206;23.550;2022-11-21T09:06:34;96161.81;;;10.73;100.00
21361;BME280;10839;43.206;23.550;2022-11-21T09:09:00;96164.66;;;10.78;100.00
21361;BME280;10839;43.206;23.550;2022-11-21T09:11:26;96160.41;;;11.13;100.00
21361;BME280;10839;43.206;23.550;2022-11-21T09:13:52;96159.50;;;11.19;100.00
21361;BME280;10839;43.206;23.550;2022-11-21T09:16:37;96159.97;;;11.70;100.00
21361;BME280;10839;43.206;23.550;2022-11-21T09:19:22;96166.88;;;12.14;100.00
21361;BME280;10839;43.206;23.550;2022-11-21T09:21:49;96164.31;;;11.89;100.00
21361;BME280;10839;43.206;23.550;2022-11-21T09:24:15;96148.84;;;11.96;100.00
21361;BME280;10839;43.206;23.550;2022-11-21T09:26:41;96163.19;;;12.38;100.00
21361;BME280;10839;43.206;23.550;2022-11-21T09:29:07;96157.06;;;12.01;100.00
21361;BME280;10839;43.206;23.550;2022-11-21T09:31:36;96150.25;;;11.51;100.00
21361;BME280;10839;43.206;23.550;2022-11-21T09:34:03;96161.28;;;11.97;100.00
21361;BME280;10839;43.206;23.550;2022-11-21T09:36:30;96156.09;;;11.84;100.00
21361;BME280;10839;43.206;23.550;2022-11-21T09:38:56;96167.16;;;11.94;100.00
21361;BME280;10839;43.206;23.550;2022-11-21T09:52:53;96158.25;;;14.36;99.59
21361;BME280;10839;43.206;23.550;2022-11-21T10:00:55;96170.38;;;15.83;89.71
21361;BME280;10839;43.206;23.550;2022-11-21T10:03:26;96162.19;;;15.78;92.54
21361;BME280;10839;43.206;23.550;2022-11-21T10:05:57;96165.53;;;17.13;85.03
21361;BME280;10839;43.206;23.550;2022-11-21T10:11:05;96174.09;;;16.95;82.94
21361;BME280;10839;43.206;23.550;2022-11-21T10:13:45;96167.84;;;17.67;83.46
21361;BME280;10839;43.206;23.550;2022-11-21T10:21:34;96174.34;;;17.56;76.94
21361;BME280;10839;43.206;23.550;2022-11-21T10:27:34;96174.13;;;18.25;76.11
21361;BME280;10839;43.206;23.550;2022-11-21T10:34:50;96159.38;;;18.16;74.86
21361;BME280;10839;43.206;23.550;2022-11-21T10:40:07;96168.91;;;17.61;74.51
21361;BME280;10839;43.206;23.550;2022-11-21T10:45:13;96175.84;;;16.79;80.25
21361;BME280;10839;43.206;23.550;2022-11-21T10:47:44;96181.84;;;16.33;78.91
21361;BME280;10839;43.206;23.550;2022-11-21T10:53:04;96186.63;;;15.61;83.02
21361;BME280;10839;43.206;23.550;2022-11-21T10:55:58;96191.81;;;15.29;85.87
21361;BME280;10839;43.206;23.550;2022-11-21T10:58:40;96184.78;;;14.79;90.65
21361;BME280;10839;43.206;23.550;2022-11-21T11:01:31;96175.75;;;13.66;100.00
21361;BME280;10839;43.206;23.550;2022-11-21T11:06:29;96197.16;;;13.33;100.00
21361;BME280;10839;43.206;23.550;2022-11-21T11:08:55;96203.22;;;12.82;100.00
21361;BME280;10839;43.206;23.550;2022-11-21T11:11:22;96190.06;;;12.44;100.00
21361;BME280;10839;43.206;23.550;2022-11-21T11:14:02;96193.03;;;12.54;100.00
21361;BME280;10839;43.206;23.550;2022-11-21T11:16:30;96203.25;;;12.52;100.00
21361;BME280;10839;43.206;23.550;2022-11-21T11:31:42;96183.53;;;12.11;100.00
21361;BME280;10839;43.206;23.550;2022-11-21T11:34:12;96185.59;;;12.38;100.00
21361;BME280;10839;43.206;23.550;2022-11-21T11:37:07;96195.00;;;11.88;100.00
21361;BME280;10839;43.206;23.550;2022-11-21T11:46:21;96187.19;;;11.44;100.00
21361;BME280;10839;43.206;23.550;2022-11-21T11:48:43;96191.28;;;11.89;100.00
21361;BME280;10839;43.206;23.550;2022-11-21T11:51:20;96192.72;;;12.03;100.00
21361;BME280;10839;43.206;23.550;2022-11-21T11:53:52;96194.97;;;11.34;100.00
21361;BME280;10839;43.206;23.550;2022-11-21T11:56:32;96199.78;;;11.68;100.00
21361;BME280;10839;43.206;23.550;2022-11-21T11:59:24;96201.13;;;11.95;100.00
21361;BME280;10839;43.206;23.550;2022-11-21T12:04:45;96208.47;;;11.88;97.17
21361;BME280;10839;43.206;23.550;2022-11-21T12:07:30;96214.78;;;12.30;94.33
21361;BME280;10839;43.206;23.550;2022-11-21T12:12:38;96207.69;;;12.17;95.44
21361;BME280;10839;43.206;23.550;2022-11-21T12:15:14;96205.09;;;12.93;87.63
21361;BME280;10839;43.206;23.550;2022-11-21T12:22:58;96233.34;;;13.09;86.14
21361;BME280;10839;43.206;23.550;2022-11-21T12:25:28;96226.75;;;13.28;83.09
21361;BME280;10839;43.206;23.550;2022-11-21T12:27:55;96237.06;;;12.66;82.81
21361;BME280;10839;43.206;23.550;2022-11-21T12:33:25;96237.78;;;13.15;79.19
21361;BME280;10839;43.206;23.550;2022-11-21T12:41:35;96226.41;;;12.71;79.60
21361;BME280;10839;43.206;23.550;2022-11-21T12:47:29;96225.25;;;11.90;82.03
21361;BME280;10839;43.206;23.550;2022-11-21T12:50:25;96214.56;;;12.72;80.20
21361;BME280;10839;43.206;23.550;2022-11-21T12:53:46;96225.94;;;12.33;82.67
21361;BME280;10839;43.206;23.550;2022-11-21T12:56:56;96219.47;;;12.34;82.96
21361;BME280;10839;43.206;23.550;2022-11-21T12:59:29;96220.97;;;13.01;78.30
21361;BME280;10839;43.206;23.550;2022-11-21T13:04:52;96232.66;;;11.95;84.81
21361;BME280;10839;43.206;23.550;2022-11-21T13:07:20;96231.69;;;12.07;84.98
21361;BME280;10839;43.206;23.550;2022-11-21T13:09:51;96234.81;;;11.86;83.52
21361;BME280;10839;43.206;23.550;2022-11-21T13:12:37;96242.63;;;11.51;86.34
21361;BME280;10839;43.206;23.550;2022-11-21T13:15:30;96250.25;;;11.79;88.77
21361;BME280;10839;43.206;23.550;2022-11-21T13:18:23;96245.75;;;11.73;89.29
21361;BME280;10839;43.206;23.550;2022-11-21T13:20:51;96244.38;;;11.46;87.80
21361;BME280;10839;43.206;23.550;2022-11-21T13:26:49;96250.47;;;11.35;88.42
21361;BME280;10839;43.206;23.550;2022-11-21T13:28:48;96248.75;;;10.98;88.24
21361;BME280;10839;43.206;23.550;2022-11-21T13:31:28;96246.94;;;10.61;89.20
21361;BME280;10839;43.206;23.550;2022-11-21T13:33:55;96262.72;;;10.82;87.38
21361;BME280;10839;43.206;23.550;2022-11-21T13:50:04;96259.25;;;10.44;89.12
21361;BME280;10839;43.206;23.550;2022-11-21T13:52:54;96249.88;;;10.84;88.48
21361;BME280;10839;43.206;23.550;2022-11-21T13:55:29;96255.00;;;10.29;92.64
21361;BME280;10839;43.206;23.550;2022-11-21T14:09:26;96273.03;;;10.22;96.03
21361;BME280;10839;43.206;23.550;2022-11-21T14:19:40;96297.47;;;10.14;92.17
21361;BME280;10839;43.206;23.550;2022-11-21T14:22:26;96300.69;;;9.59;95.41
21361;BME280;10839;43.206;23.550;2022-11-21T14:24:54;96298.72;;;9.99;93.69
21361;BME280;10839;43.206;23.550;2022-11-21T14:27:30;96288.78;;;10.12;91.57
21361;BME280;10839;43.206;23.550;2022-11-21T14:29:57;96302.06;;;9.94;91.69
21361;BME280;10839;43.206;23.550;2022-11-21T14:32:29;96316.53;;;9.80;95.59
21361;BME280;10839;43.206;23.550;2022-11-21T14:35:20;96312.34;;;10.10;93.06
21361;BME280;10839;43.206;23.550;2022-11-21T14:37:49;96311.97;;;9.94;93.27
21361;BME280;10839;43.206;23.550;2022-11-21T14:40:21;96310.34;;;9.73;95.41
21361;BME280;10839;43.206;23.550;2022-11-21T14:42:47;96298.16;;;9.77;95.21
21361;BME280;10839;43.206;23.550;2022-11-21T14:45:21;96309.25;;;10.00;96.98
21361;BME280;10839;43.206;23.550;2022-11-21T14:47:52;96297.31;;;9.83;93.53
21361;BME280;10839;43.206;23.550;2022-11-21T14:50:30;96297.53;;;9.82;93.30
21361;BME280;10839;43.206;23.550;2022-11-21T14:52:59;96302.44;;;10.04;92.01
21361;BME280;10839;43.206;23.550;2022-11-21T14:55:30;96307.44;;;9.94;87.94
21361;BME280;10839;43.206;23.550;2022-11-21T14:57:58;96288.69;;;9.68;87.46
21361;BME280;10839;43.206;23.550;2022-11-21T15:00:29;96304.50;;;10.02;85.63
21361;BME280;10839;43.206;23.550;2022-11-21T15:02:57;96291.31;;;9.94;87.13
21361;BME280;10839;43.206;23.550;2022-11-21T15:05:31;96290.91;;;9.91;88.38
21361;BME280;10839;43.206;23.550;2022-11-21T15:07:58;96306.00;;;9.85;89.81
21361;BME280;10839;43.206;23.550;2022-11-21T15:10:30;96302.44;;;10.04;87.59
21361;BME280;10839;43.206;23.550;2022-11-21T15:15:43;96304.63;;;9.50;85.02